Time;durP1;ratioP1;P1;durP2;ratioP2;P2;SDS_P1;SDS_P2;PMS_P1;PMS_P2;Temp;Humidity;BMP_temperature;BMP_pressure;BME280_temperature;BME280_humidity;BME280_pressure;Samples;Min_cycle;Max_cycle;Signal;HPM_P1;HPM_P2
2021/12/07 00:01:59;;;;;;;;;;;20.60;35.20;;;;;;5135797;27;20270;-54
2021/12/07 00:04:25;;;;;;;;;;;20.60;35.20;;;;;;5135672;27;20006;-53
2021/12/07 00:06:50;;;;;;;;;;;20.60;35.30;;;;;;5135488;27;19955;-49
2021/12/07 00:09:16;;;;;;;;;;;20.60;35.20;;;;;;5135677;27;20018;-52
2021/12/07 00:11:43;;;;;;;;;;;20.60;35.20;;;;;;5136041;27;19907;-53
2021/12/07 00:14:22;;;;;;;;;;;20.60;35.30;;;;;;5135639;27;19950;-56
2021/12/07 00:16:47;;;;;;;;;;;20.60;35.20;;;;;;5134734;27;19927;-55
2021/12/07 00:19:13;;;;;;;;;;;20.60;35.20;;;;;;5134905;27;20377;-55
2021/12/07 00:21:40;;;;;;;;;;;20.50;35.20;;;;;;5135600;27;19915;-51
2021/12/07 00:24:06;;;;;;;;;;;20.50;35.30;;;;;;5135102;27;19914;-54
2021/12/07 00:26:31;;;;;;;;;;;20.50;35.30;;;;;;5135080;27;19907;-55
2021/12/07 00:29:01;;;;;;;;;;;20.50;35.30;;;;;;5135433;27;19928;-49
2021/12/07 00:31:31;;;;;;;;;;;20.50;35.30;;;;;;5135301;27;19907;-49
2021/12/07 00:36:44;;;;;;;;;;;20.50;35.30;;;;;;5135030;27;19969;-54
2021/12/07 00:39:10;;;;;;;;;;;20.50;35.30;;;;;;5135019;27;19908;-52
2021/12/07 00:41:36;;;;;;;;;;;20.50;35.30;;;;;;5134739;27;19974;-55
2021/12/07 00:44:02;;;;;;;;;;;20.50;35.30;;;;;;5135134;27;19943;-55
2021/12/07 00:46:28;;;;;;;;;;;20.50;35.30;;;;;;5134735;27;19918;-52
2021/12/07 00:48:54;;;;;;;;;;;20.50;35.30;;;;;;5134891;27;19955;-53
2021/12/07 00:51:19;;;;;;;;;;;20.50;35.30;;;;;;5116411;27;20358;-49
2021/12/07 00:53:45;;;;;;;;;;;20.40;35.40;;;;;;5134853;27;19914;-55
2021/12/07 00:56:11;;;;;;;;;;;20.50;35.30;;;;;;5135009;27;20354;-49
2021/12/07 00:58:36;;;;;;;;;;;20.40;35.40;;;;;;5134518;27;20006;-54
2021/12/07 01:01:04;;;;;;;;;;;20.40;35.40;;;;;;5134525;27;19912;-53
2021/12/07 01:03:30;;;;;;;;;;;20.40;35.40;;;;;;5134808;27;19911;-50
2021/12/07 01:06:06;;;;;;;;;;;20.40;35.40;;;;;;5134787;27;19942;-54
2021/12/07 01:24:44;;;;;;;;;;;20.40;35.50;;;;;;5134855;28;19959;-55
2021/12/07 01:27:12;;;;;;;;;;;20.40;35.50;;;;;;5134716;28;20321;-54
2021/12/07 01:29:39;;;;;;;;;;;20.30;35.50;;;;;;5137135;27;19942;-53
2021/12/07 01:32:27;;;;;;;;;;;20.30;35.50;;;;;;5138999;27;19914;-56
2021/12/07 01:43:26;;;;;;;;;;;20.30;35.50;;;;;;5138612;27;19907;-56
2021/12/07 01:57:52;;;;;;;;;;;20.20;35.60;;;;;;5138525;27;19953;-55
2021/12/07 02:01:50;;;;;;;;;;;20.20;35.60;;;;;;5138339;27;20312;-54
2021/12/07 02:04:15;;;;;;;;;;;20.20;35.60;;;;;;5137942;27;19908;-55
2021/12/07 02:06:41;;;;;;;;;;;20.20;35.60;;;;;;5137899;27;19907;-55
2021/12/07 02:09:10;;;;;;;;;;;20.20;35.60;;;;;;5137881;27;19919;-54
2021/12/07 02:11:36;;;;;;;;;;;20.20;35.60;;;;;;5137899;27;19907;-52
2021/12/07 02:14:04;;;;;;;;;;;20.10;35.70;;;;;;5119670;27;19962;-50
2021/12/07 02:16:30;;;;;;;;;;;20.10;35.70;;;;;;5137943;27;19912;-56
2021/12/07 02:18:56;;;;;;;;;;;20.10;35.70;;;;;;5137739;27;20270;-54
2021/12/07 02:21:23;;;;;;;;;;;20.10;35.70;;;;;;5137746;27;19914;-53
2021/12/07 02:23:49;;;;;;;;;;;20.10;35.70;;;;;;5137878;27;19980;-53
2021/12/07 02:26:15;;;;;;;;;;;20.10;35.70;;;;;;5137887;27;19907;-50
2021/12/07 02:28:41;;;;;;;;;;;20.10;35.70;;;;;;5137623;27;19919;-55
2021/12/07 02:31:07;;;;;;;;;;;20.10;35.70;;;;;;5137394;27;19912;-49
2021/12/07 02:33:33;;;;;;;;;;;20.00;35.70;;;;;;5137528;27;19947;-50
2021/12/07 02:35:58;;;;;;;;;;;20.00;35.70;;;;;;5137705;27;19951;-50
2021/12/07 02:38:24;;;;;;;;;;;20.10;35.70;;;;;;5137402;27;19908;-55
2021/12/07 02:40:49;;;;;;;;;;;20.00;35.70;;;;;;5136277;27;19915;-54
2021/12/07 02:43:15;;;;;;;;;;;20.00;35.70;;;;;;5137132;27;19923;-54
2021/12/07 02:45:40;;;;;;;;;;;20.00;35.70;;;;;;5137323;27;19908;-54
2021/12/07 02:48:06;;;;;;;;;;;20.00;35.60;;;;;;5136990;27;20010;-50
2021/12/07 02:50:33;;;;;;;;;;;20.00;35.70;;;;;;5137179;27;19912;-51
2021/12/07 02:53:00;;;;;;;;;;;20.00;35.70;;;;;;5136988;27;20373;-52
2021/12/07 02:55:25;;;;;;;;;;;20.00;35.70;;;;;;5118565;27;20290;-52
2021/12/07 02:57:51;;;;;;;;;;;20.00;35.70;;;;;;5136813;27;19907;-53
2021/12/07 03:00:20;;;;;;;;;;;20.00;35.70;;;;;;5137265;27;19911;-54
2021/12/07 03:03:01;;;;;;;;;;;20.00;35.70;;;;;;5136899;27;19994;-56
2021/12/07 03:05:59;;;;;;;;;;;20.00;35.70;;;;;;5137083;27;19933;-51
2021/12/07 03:09:01;;;;;;;;;;;20.00;35.70;;;;;;5136144;27;20024;-51
2021/12/07 03:27:48;;;;;;;;;;;19.90;35.80;;;;;;5136984;27;19918;-49
2021/12/07 03:30:14;;;;;;;;;;;19.90;35.80;;;;;;5136695;27;20300;-51
2021/12/07 03:32:39;;;;;;;;;;;19.90;35.80;;;;;;5136407;27;19931;-53
2021/12/07 03:35:05;;;;;;;;;;;19.90;35.80;;;;;;5136169;27;19908;-50
2021/12/07 03:37:30;;;;;;;;;;;19.90;35.80;;;;;;5136083;27;19908;-50
2021/12/07 03:39:56;;;;;;;;;;;19.90;35.80;;;;;;5136134;27;19907;-52
2021/12/07 03:42:21;;;;;;;;;;;19.90;35.80;;;;;;5136344;27;20347;-51
2021/12/07 03:44:46;;;;;;;;;;;19.90;35.80;;;;;;5136047;27;20284;-50
2021/12/07 03:47:12;;;;;;;;;;;19.80;35.80;;;;;;5136067;27;19911;-49
2021/12/07 03:49:37;;;;;;;;;;;19.80;35.80;;;;;;5135800;27;19945;-52
2021/12/07 03:52:03;;;;;;;;;;;19.80;35.90;;;;;;5135537;27;19907;-53
2021/12/07 03:54:28;;;;;;;;;;;19.90;35.90;;;;;;5136082;27;19932;-54
2021/12/07 03:56:54;;;;;;;;;;;19.80;35.90;;;;;;5136052;27;20370;-51
2021/12/07 03:59:19;;;;;;;;;;;19.80;35.90;;;;;;5135566;27;19920;-53
2021/12/07 04:01:45;;;;;;;;;;;19.80;35.90;;;;;;5136026;27;19907;-51
2021/12/07 04:04:10;;;;;;;;;;;19.80;35.90;;;;;;5135620;27;20282;-50
2021/12/07 04:06:36;;;;;;;;;;;19.80;35.90;;;;;;5135578;27;19907;-51
2021/12/07 04:09:02;;;;;;;;;;;19.80;35.90;;;;;;5135410;27;19916;-53
2021/12/07 04:11:28;;;;;;;;;;;19.80;35.90;;;;;;5135627;27;19916;-52
2021/12/07 04:13:53;;;;;;;;;;;19.80;35.90;;;;;;5135396;27;19907;-50
2021/12/07 04:16:19;;;;;;;;;;;19.80;35.90;;;;;;5135424;27;19998;-50
2021/12/07 04:18:44;;;;;;;;;;;19.70;35.90;;;;;;5135529;27;19907;-50
2021/12/07 04:21:10;;;;;;;;;;;19.80;35.90;;;;;;5135512;27;20274;-54
2021/12/07 04:23:36;;;;;;;;;;;19.80;36.00;;;;;;5135313;27;19907;-54
2021/12/07 04:26:03;;;;;;;;;;;19.80;35.90;;;;;;5135186;27;19907;-52
2021/12/07 04:28:29;;;;;;;;;;;19.70;36.00;;;;;;5135040;27;20374;-50
2021/12/07 04:30:54;;;;;;;;;;;19.70;36.00;;;;;;5135204;27;19916;-53
2021/12/07 04:33:20;;;;;;;;;;;19.70;36.00;;;;;;5135382;27;19968;-51
2021/12/07 04:35:47;;;;;;;;;;;19.70;36.00;;;;;;5135149;27;20274;-53
2021/12/07 04:38:13;;;;;;;;;;;19.70;36.00;;;;;;5135282;27;19914;-52
2021/12/07 04:40:38;;;;;;;;;;;19.70;36.00;;;;;;5135309;27;19907;-53
2021/12/07 04:43:05;;;;;;;;;;;19.70;36.00;;;;;;5135394;27;19914;-51
2021/12/07 04:45:48;;;;;;;;;;;19.70;36.00;;;;;;5134940;27;19908;-52
2021/12/07 04:59:00;;;;;;;;;;;19.70;36.10;;;;;;5134769;27;19926;-50
2021/12/07 05:01:25;;;;;;;;;;;19.60;36.10;;;;;;5134737;27;19907;-55
2021/12/07 05:03:54;;;;;;;;;;;19.70;36.10;;;;;;5134288;27;19912;-54
2021/12/07 05:06:23;;;;;;;;;;;19.60;36.10;;;;;;5134907;27;19908;-51
2021/12/07 05:08:56;;;;;;;;;;;19.70;36.10;;;;;;5134411;27;19959;-52
2021/12/07 05:24:15;;;;;;;;;;;19.80;36.00;;;;;;5134937;28;19914;-50
2021/12/07 05:40:20;;;;;;;;;;;19.90;35.80;;;;;;5134557;28;19915;-54
2021/12/07 05:42:45;;;;;;;;;;;20.00;35.90;;;;;;5134256;28;19908;-53
2021/12/07 05:45:13;;;;;;;;;;;20.00;35.90;;;;;;5134220;28;19914;-55
2021/12/07 05:47:38;;;;;;;;;;;20.00;35.80;;;;;;5134312;28;19912;-53
2021/12/07 05:50:05;;;;;;;;;;;20.00;35.80;;;;;;5134072;28;19960;-52
2021/12/07 05:52:31;;;;;;;;;;;20.00;35.80;;;;;;5134081;28;19911;-53
2021/12/07 05:54:56;;;;;;;;;;;20.00;35.80;;;;;;5134390;28;20396;-53
2021/12/07 05:57:22;;;;;;;;;;;20.00;35.90;;;;;;5134228;28;19914;-53
2021/12/07 05:59:47;;;;;;;;;;;20.00;35.80;;;;;;5133903;28;19934;-53
2021/12/07 06:02:13;;;;;;;;;;;20.10;35.80;;;;;;5134039;28;19930;-54
2021/12/07 06:04:38;;;;;;;;;;;20.10;35.80;;;;;;5134052;28;19937;-48
2021/12/07 06:07:04;;;;;;;;;;;20.10;35.80;;;;;;5134279;28;20362;-52
2021/12/07 06:09:30;;;;;;;;;;;20.10;35.80;;;;;;5134134;28;19919;-50
2021/12/07 06:11:55;;;;;;;;;;;20.10;35.80;;;;;;5134116;28;19960;-48
2021/12/07 06:14:21;;;;;;;;;;;20.20;35.80;;;;;;5134464;27;19907;-49
2021/12/07 06:16:47;;;;;;;;;;;20.20;35.80;;;;;;5137854;27;19954;-54
2021/12/07 06:19:13;;;;;;;;;;;20.10;35.80;;;;;;5137769;27;19954;-49
2021/12/07 06:21:39;;;;;;;;;;;20.20;35.80;;;;;;5137844;27;19907;-52
2021/12/07 06:24:04;;;;;;;;;;;20.20;35.80;;;;;;5137614;27;19922;-50
2021/12/07 06:26:30;;;;;;;;;;;20.20;35.80;;;;;;5137744;27;19907;-48
2021/12/07 06:28:55;;;;;;;;;;;20.20;35.80;;;;;;5137597;27;19916;-49
2021/12/07 06:31:20;;;;;;;;;;;20.20;35.80;;;;;;5137604;27;19959;-52
2021/12/07 06:33:46;;;;;;;;;;;20.30;35.80;;;;;;5137361;27;19907;-51
2021/12/07 06:36:13;;;;;;;;;;;20.20;35.80;;;;;;5137400;27;19907;-54
2021/12/07 06:38:39;;;;;;;;;;;20.30;35.80;;;;;;5137249;27;19960;-50
2021/12/07 06:41:05;;;;;;;;;;;20.30;35.80;;;;;;5137213;27;20286;-51
2021/12/07 06:43:31;;;;;;;;;;;20.30;35.80;;;;;;5137176;27;19914;-54
2021/12/07 06:45:56;;;;;;;;;;;20.30;35.90;;;;;;5137340;27;19914;-49
2021/12/07 06:48:21;;;;;;;;;;;20.40;35.80;;;;;;5137131;27;20266;-50
2021/12/07 06:50:48;;;;;;;;;;;20.30;35.80;;;;;;5136995;27;20035;-53
2021/12/07 06:53:13;;;;;;;;;;;20.40;35.80;;;;;;5137084;27;19939;-50
2021/12/07 06:55:39;;;;;;;;;;;20.30;35.80;;;;;;5137194;27;19961;-51
2021/12/07 06:58:04;;;;;;;;;;;20.40;35.90;;;;;;5136797;27;19907;-52
2021/12/07 07:00:30;;;;;;;;;;;20.40;35.90;;;;;;5137043;27;20010;-54
2021/12/07 07:02:56;;;;;;;;;;;20.40;35.90;;;;;;5136827;27;19946;-54
2021/12/07 07:05:21;;;;;;;;;;;20.40;35.90;;;;;;5136974;27;19907;-54
2021/12/07 07:07:47;;;;;;;;;;;20.40;35.80;;;;;;5136580;27;19908;-51
2021/12/07 07:10:14;;;;;;;;;;;20.40;35.90;;;;;;5136776;27;19960;-55
2021/12/07 07:12:40;;;;;;;;;;;20.40;35.90;;;;;;5136885;27;19912;-55
2021/12/07 07:15:06;;;;;;;;;;;20.50;35.90;;;;;;5136514;27;20295;-54
2021/12/07 07:17:31;;;;;;;;;;;20.40;35.90;;;;;;5136355;27;19907;-55
2021/12/07 07:19:57;;;;;;;;;;;20.50;35.90;;;;;;5136448;27;19914;-55
2021/12/07 07:22:22;;;;;;;;;;;20.50;35.90;;;;;;5136669;27;20281;-53
2021/12/07 07:24:48;;;;;;;;;;;20.50;35.90;;;;;;5136751;27;20052;-51
2021/12/07 07:27:13;;;;;;;;;;;20.50;35.90;;;;;;5117328;27;19907;-55
2021/12/07 07:29:39;;;;;;;;;;;20.50;35.80;;;;;;5117765;27;19923;-52
2021/12/07 07:32:05;;;;;;;;;;;20.50;35.80;;;;;;5136317;27;19908;-56
2021/12/07 07:34:30;;;;;;;;;;;20.50;35.80;;;;;;5136671;27;19907;-51
2021/12/07 07:36:55;;;;;;;;;;;20.50;35.90;;;;;;5136157;27;19951;-51
2021/12/07 07:39:21;;;;;;;;;;;20.50;35.80;;;;;;5136083;27;19908;-54
2021/12/07 07:41:47;;;;;;;;;;;20.50;35.80;;;;;;5136239;27;19915;-52
2021/12/07 07:44:12;;;;;;;;;;;20.50;35.80;;;;;;5136338;27;19907;-50
2021/12/07 07:46:38;;;;;;;;;;;20.50;35.80;;;;;;5135208;27;19915;-54
2021/12/07 07:49:04;;;;;;;;;;;20.50;35.90;;;;;;5137457;27;20328;-56
2021/12/07 07:51:31;;;;;;;;;;;20.60;35.90;;;;;;5144692;27;19907;-53
2021/12/07 07:53:58;;;;;;;;;;;20.60;35.80;;;;;;5150626;27;19930;-56
2021/12/07 07:56:23;;;;;;;;;;;20.60;35.90;;;;;;5156381;27;19961;-56
2021/12/07 07:58:49;;;;;;;;;;;20.60;35.80;;;;;;5149060;27;19915;-50
2021/12/07 08:01:14;;;;;;;;;;;20.60;35.90;;;;;;5135511;27;20355;-54
2021/12/07 08:03:40;;;;;;;;;;;20.60;35.90;;;;;;5135318;27;19908;-54
2021/12/07 08:06:05;;;;;;;;;;;20.70;35.80;;;;;;5135487;27;19914;-54
2021/12/07 08:08:31;;;;;;;;;;;20.70;35.90;;;;;;5134717;27;20079;-55
2021/12/07 08:10:56;;;;;;;;;;;20.70;35.90;;;;;;5135772;27;19919;-55
2021/12/07 08:13:22;;;;;;;;;;;20.70;35.80;;;;;;5135136;27;20026;-55
2021/12/07 08:15:49;;;;;;;;;;;20.70;35.90;;;;;;5135278;27;20100;-54
2021/12/07 08:18:15;;;;;;;;;;;20.70;35.90;;;;;;5134972;27;19914;-57
2021/12/07 08:20:41;;;;;;;;;;;20.70;35.90;;;;;;5135120;27;20278;-56
2021/12/07 08:23:07;;;;;;;;;;;20.70;35.90;;;;;;5135220;27;19912;-58
2021/12/07 08:25:33;;;;;;;;;;;20.70;35.90;;;;;;5134945;27;19913;-57
2021/12/07 08:27:59;;;;;;;;;;;20.80;35.80;;;;;;5134914;27;20455;-57
2021/12/07 08:30:24;;;;;;;;;;;20.80;35.90;;;;;;5134623;27;19911;-53
2021/12/07 08:32:50;;;;;;;;;;;20.80;35.90;;;;;;5134991;27;19915;-56
2021/12/07 08:35:16;;;;;;;;;;;20.80;35.90;;;;;;5134739;27;20454;-56
2021/12/07 08:37:44;;;;;;;;;;;20.80;35.90;;;;;;5134319;27;19914;-52
2021/12/07 08:40:11;;;;;;;;;;;20.80;35.90;;;;;;5134075;27;19943;-56
2021/12/07 08:42:37;;;;;;;;;;;20.80;35.90;;;;;;5134667;27;19907;-55
2021/12/07 08:45:04;;;;;;;;;;;20.80;35.90;;;;;;5134704;27;19911;-54
2021/12/07 08:47:30;;;;;;;;;;;20.80;35.90;;;;;;5134365;27;19911;-50
2021/12/07 08:49:55;;;;;;;;;;;20.80;35.90;;;;;;5134013;27;20355;-58
2021/12/07 08:52:21;;;;;;;;;;;20.90;36.00;;;;;;5134383;27;19918;-58
2021/12/07 08:59:56;;;;;;;;;;;20.90;35.90;;;;;;5133800;27;19926;-58
2021/12/07 09:02:23;;;;;;;;;;;21.00;35.90;;;;;;5134754;27;19911;-58
2021/12/07 09:04:50;;;;;;;;;;;21.00;35.90;;;;;;5133336;27;19956;-58
2021/12/07 09:07:15;;;;;;;;;;;21.00;35.90;;;;;;5132434;27;20309;-58
2021/12/07 09:09:43;;;;;;;;;;;21.00;35.90;;;;;;5132035;27;19927;-59
2021/12/07 09:12:09;;;;;;;;;;;21.00;35.90;;;;;;5132190;27;20358;-59
2021/12/07 09:14:35;;;;;;;;;;;21.00;35.90;;;;;;5132431;27;19908;-58
2021/12/07 09:17:02;;;;;;;;;;;21.00;35.90;;;;;;5132775;27;19917;-59
2021/12/07 09:19:27;;;;;;;;;;;21.00;35.90;;;;;;5133356;27;19950;-59
2021/12/07 09:21:53;;;;;;;;;;;21.00;35.90;;;;;;5134435;28;19907;-59
2021/12/07 09:24:19;;;;;;;;;;;21.00;35.90;;;;;;5134443;28;19911;-59
2021/12/07 09:26:45;;;;;;;;;;;21.10;35.80;;;;;;5134312;28;19932;-59
2021/12/07 09:29:10;;;;;;;;;;;21.00;35.80;;;;;;5134385;28;19915;-58
2021/12/07 09:31:36;;;;;;;;;;;21.10;35.90;;;;;;5134147;28;19907;-59
2021/12/07 09:34:02;;;;;;;;;;;21.10;35.90;;;;;;5133842;27;19907;-58
2021/12/07 09:36:28;;;;;;;;;;;21.10;35.80;;;;;;5133663;28;20399;-54
2021/12/07 09:38:53;;;;;;;;;;;21.00;35.90;;;;;;5134060;28;19959;-57
2021/12/07 09:41:20;;;;;;;;;;;21.10;35.80;;;;;;5133969;28;19941;-50
2021/12/07 09:43:46;;;;;;;;;;;21.10;35.90;;;;;;5133992;27;19915;-54
2021/12/07 09:46:12;;;;;;;;;;;21.10;35.90;;;;;;5133444;28;19915;-62
2021/12/07 09:48:38;;;;;;;;;;;21.10;35.90;;;;;;5133855;27;19972;-55
2021/12/07 09:51:04;;;;;;;;;;;21.10;35.90;;;;;;5137397;27;19994;-55
2021/12/07 09:53:30;;;;;;;;;;;21.10;35.90;;;;;;5138248;27;19911;-55
2021/12/07 09:55:56;;;;;;;;;;;21.10;35.90;;;;;;5137333;27;19953;-55
2021/12/07 09:58:22;;;;;;;;;;;21.10;35.90;;;;;;5137139;27;20270;-55
2021/12/07 10:00:48;;;;;;;;;;;21.10;35.90;;;;;;5137561;27;19919;-54
2021/12/07 10:03:15;;;;;;;;;;;21.20;35.90;;;;;;5137989;27;19907;-55
2021/12/07 10:05:41;;;;;;;;;;;21.20;35.90;;;;;;5137074;27;19912;-54
2021/12/07 10:08:07;;;;;;;;;;;21.20;35.90;;;;;;5138176;27;19914;-54
2021/12/07 10:10:34;;;;;;;;;;;21.20;35.90;;;;;;5119380;27;20433;-50
2021/12/07 10:13:00;;;;;;;;;;;21.20;35.90;;;;;;5137281;27;19908;-53
2021/12/07 10:15:26;;;;;;;;;;;21.20;35.90;;;;;;5137051;27;20351;-53
2021/12/07 10:18:18;;;;;;;;;;;21.20;35.90;;;;;;5137698;27;19952;-56
2021/12/07 10:20:48;;;;;;;;;;;21.20;35.90;;;;;;5132228;27;20239;-57
2021/12/07 10:23:13;;;;;;;;;;;21.30;35.90;;;;;;5137342;27;20290;-55
2021/12/07 10:25:40;;;;;;;;;;;21.20;35.90;;;;;;5136796;27;19911;-54
2021/12/07 10:28:23;;;;;;;;;;;21.20;35.90;;;;;;5137451;27;20370;-51
2021/12/07 10:30:49;;;;;;;;;;;21.30;35.90;;;;;;5137312;27;19922;-56
2021/12/07 10:33:16;;;;;;;;;;;21.30;35.90;;;;;;5118718;27;19997;-56
2021/12/07 10:35:41;;;;;;;;;;;21.30;35.90;;;;;;5136697;27;19918;-57
2021/12/07 10:38:11;;;;;;;;;;;21.30;36.00;;;;;;5137131;27;19908;-57
2021/12/07 10:40:53;;;;;;;;;;;21.30;36.00;;;;;;5137203;27;19919;-57
2021/12/07 10:43:18;;;;;;;;;;;21.30;35.90;;;;;;5137003;27;19919;-52
2021/12/07 10:45:44;;;;;;;;;;;21.30;36.00;;;;;;5136181;27;20269;-52
2021/12/07 10:48:22;;;;;;;;;;;21.30;35.90;;;;;;5136901;27;19907;-52
2021/12/07 10:50:48;;;;;;;;;;;21.30;35.90;;;;;;5137120;27;19912;-53
2021/12/07 10:53:13;;;;;;;;;;;21.30;35.90;;;;;;5136744;27;19907;-54
2021/12/07 10:55:39;;;;;;;;;;;21.40;35.90;;;;;;5136118;27;19911;-55
2021/12/07 10:58:05;;;;;;;;;;;21.40;35.90;;;;;;5136569;27;19907;-53
2021/12/07 11:00:33;;;;;;;;;;;21.40;35.90;;;;;;5136556;27;19927;-56
2021/12/07 11:03:03;;;;;;;;;;;21.40;35.90;;;;;;5135137;27;22231;-57
2021/12/07 11:05:33;;;;;;;;;;;21.40;35.90;;;;;;5136204;27;19915;-54
2021/12/07 11:08:00;;;;;;;;;;;21.40;35.90;;;;;;5136346;27;20002;-53
2021/12/07 11:10:30;;;;;;;;;;;21.40;36.00;;;;;;5136278;27;19922;-52
2021/12/07 11:13:08;;;;;;;;;;;21.50;35.90;;;;;;5136656;27;19921;-52
2021/12/07 11:15:37;;;;;;;;;;;21.40;36.00;;;;;;5135957;27;19907;-52
2021/12/07 11:18:07;;;;;;;;;;;21.50;35.90;;;;;;5136673;27;19914;-54
2021/12/07 11:20:33;;;;;;;;;;;21.40;35.90;;;;;;5136434;27;19908;-54
2021/12/07 11:23:04;;;;;;;;;;;21.50;35.90;;;;;;5136484;27;19946;-56
2021/12/07 11:25:53;;;;;;;;;;;21.50;35.90;;;;;;5135534;27;20388;-52
2021/12/07 11:31:22;;;;;;;;;;;21.50;36.00;;;;;;5136076;27;19964;-54
2021/12/07 11:33:48;;;;;;;;;;;21.50;35.90;;;;;;5136273;27;19907;-52
2021/12/07 11:36:30;;;;;;;;;;;21.50;36.00;;;;;;5135559;27;19908;-57
2021/12/07 11:38:57;;;;;;;;;;;21.50;35.90;;;;;;5135865;27;19911;-56
2021/12/07 11:41:31;;;;;;;;;;;21.50;35.90;;;;;;5135919;27;19961;-57
2021/12/07 11:44:01;;;;;;;;;;;21.50;36.00;;;;;;5135850;27;19907;-54
2021/12/07 11:46:27;;;;;;;;;;;21.50;35.90;;;;;;5135364;27;19994;-55
2021/12/07 11:49:07;;;;;;;;;;;21.50;35.90;;;;;;5135561;27;19916;-55
2021/12/07 11:51:33;;;;;;;;;;;21.50;35.90;;;;;;5135519;27;19907;-54
2021/12/07 11:53:58;;;;;;;;;;;21.50;35.90;;;;;;5135942;27;19911;-51
2021/12/07 11:56:24;;;;;;;;;;;21.50;35.90;;;;;;5135035;27;20281;-56
2021/12/07 11:58:49;;;;;;;;;;;21.50;35.90;;;;;;5135360;27;19919;-49
2021/12/07 12:01:15;;;;;;;;;;;21.50;35.90;;;;;;5135811;27;20313;-50
2021/12/07 12:03:40;;;;;;;;;;;21.50;35.90;;;;;;5135661;27;19915;-51
2021/12/07 12:06:07;;;;;;;;;;;21.60;35.90;;;;;;5134810;27;20028;-49
2021/12/07 12:08:32;;;;;;;;;;;21.60;35.90;;;;;;5135578;27;19911;-50
2021/12/07 12:11:05;;;;;;;;;;;21.50;35.90;;;;;;5135467;27;20327;-52
2021/12/07 12:13:43;;;;;;;;;;;21.50;35.90;;;;;;5135048;27;19907;-58
2021/12/07 12:16:21;;;;;;;;;;;21.60;35.90;;;;;;5135615;27;20003;-51
2021/12/07 12:18:53;;;;;;;;;;;21.60;35.90;;;;;;5135143;27;19915;-51
2021/12/07 12:21:30;;;;;;;;;;;21.70;35.80;;;;;;5134512;27;19938;-52
2021/12/07 12:24:25;;;;;;;;;;;21.70;35.90;;;;;;5135005;27;20494;-55
2021/12/07 12:27:03;;;;;;;;;;;21.60;35.90;;;;;;5112705;27;19907;-53
2021/12/07 12:29:31;;;;;;;;;;;21.60;35.90;;;;;;5135097;27;19926;-49
2021/12/07 12:31:58;;;;;;;;;;;21.60;35.90;;;;;;5134395;27;19908;-50
2021/12/07 12:34:30;;;;;;;;;;;21.60;35.90;;;;;;5132869;27;19914;-52
2021/12/07 12:36:59;;;;;;;;;;;21.60;35.90;;;;;;5132838;27;19908;-52
2021/12/07 12:39:41;;;;;;;;;;;21.60;35.90;;;;;;5132946;27;19907;-51
2021/12/07 12:42:07;;;;;;;;;;;21.70;35.90;;;;;;5132843;27;20255;-52
2021/12/07 12:44:36;;;;;;;;;;;21.70;35.90;;;;;;5132750;27;20468;-50
2021/12/07 12:47:03;;;;;;;;;;;21.70;35.90;;;;;;5133184;27;19907;-53
2021/12/07 12:49:38;;;;;;;;;;;21.70;35.90;;;;;;5134828;27;19925;-50
2021/12/07 12:52:03;;;;;;;;;;;21.70;35.90;;;;;;5134808;27;19907;-52
2021/12/07 12:54:37;;;;;;;;;;;21.70;35.90;;;;;;5134856;27;20431;-50
2021/12/07 12:57:14;;;;;;;;;;;21.70;35.80;;;;;;5134661;27;20381;-52
2021/12/07 12:59:41;;;;;;;;;;;21.70;35.90;;;;;;5134323;27;20255;-52
2021/12/07 13:02:06;;;;;;;;;;;21.70;35.80;;;;;;5134365;27;19971;-51
2021/12/07 13:04:34;;;;;;;;;;;21.70;35.90;;;;;;5134311;27;19907;-50
2021/12/07 13:09:36;;;;;;;;;;;21.70;35.80;;;;;;5134660;27;20014;-51
2021/12/07 13:12:07;;;;;;;;;;;21.70;35.80;;;;;;5134422;27;20358;-53
2021/12/07 13:14:44;;;;;;;;;;;21.70;35.80;;;;;;5134768;27;20002;-50
2021/12/07 13:17:41;;;;;;;;;;;21.70;35.80;;;;;;5134418;27;19908;-56
2021/12/07 13:20:10;;;;;;;;;;;21.70;35.80;;;;;;5077657;28;20002;-50
2021/12/07 13:22:35;;;;;;;;;;;21.80;35.80;;;;;;5134271;27;19914;-52
2021/12/07 13:25:08;;;;;;;;;;;21.70;35.80;;;;;;5133717;27;20002;-56
2021/12/07 13:27:35;;;;;;;;;;;21.80;35.80;;;;;;5134541;28;19915;-51
2021/12/07 13:30:01;;;;;;;;;;;21.70;35.80;;;;;;5134136;28;20366;-55
2021/12/07 13:32:27;;;;;;;;;;;21.80;35.80;;;;;;5134213;28;20037;-56
2021/12/07 13:34:59;;;;;;;;;;;21.80;35.80;;;;;;5134154;27;19908;-55
2021/12/07 13:37:42;;;;;;;;;;;21.80;35.80;;;;;;5134193;28;20006;-54
2021/12/07 13:40:15;;;;;;;;;;;21.80;35.80;;;;;;5134181;28;19943;-53
2021/12/07 13:42:46;;;;;;;;;;;21.80;35.80;;;;;;5134306;28;19914;-58
2021/12/07 13:45:12;;;;;;;;;;;21.80;35.80;;;;;;5134380;28;19907;-55
2021/12/07 13:47:43;;;;;;;;;;;21.70;35.80;;;;;;5133933;27;19908;-56
2021/12/07 13:50:14;;;;;;;;;;;21.80;35.80;;;;;;5133816;28;19926;-53
2021/12/07 13:52:41;;;;;;;;;;;21.70;35.80;;;;;;5134318;28;19907;-55
2021/12/07 13:55:09;;;;;;;;;;;21.80;35.80;;;;;;5134200;28;19932;-50
2021/12/07 13:57:36;;;;;;;;;;;21.80;35.80;;;;;;5134107;28;19907;-52
2021/12/07 14:00:04;;;;;;;;;;;21.80;35.80;;;;;;5133773;28;19951;-56
2021/12/07 14:02:30;;;;;;;;;;;21.80;35.80;;;;;;5133849;28;20328;-51
2021/12/07 14:05:08;;;;;;;;;;;21.70;35.80;;;;;;5133969;27;19907;-55
2021/12/07 14:07:34;;;;;;;;;;;21.80;35.80;;;;;;5134134;28;19939;-55
2021/12/07 14:10:11;;;;;;;;;;;21.80;35.80;;;;;;5133816;28;19970;-54
2021/12/07 14:12:36;;;;;;;;;;;21.80;35.70;;;;;;5133764;27;19953;-55
2021/12/07 14:15:06;;;;;;;;;;;21.80;35.70;;;;;;5134047;28;19908;-50
2021/12/07 14:17:41;;;;;;;;;;;21.80;35.70;;;;;;5133768;28;20354;-50
2021/12/07 14:20:07;;;;;;;;;;;21.80;35.80;;;;;;5133808;28;19908;-51
2021/12/07 14:22:33;;;;;;;;;;;21.80;35.80;;;;;;5133894;28;19908;-54
2021/12/07 14:24:58;;;;;;;;;;;21.80;35.80;;;;;;5133662;28;20000;-50
2021/12/07 14:27:24;;;;;;;;;;;21.80;35.80;;;;;;5133600;27;19911;-50
2021/12/07 14:29:49;;;;;;;;;;;21.80;35.70;;;;;;5133727;28;19916;-54
2021/12/07 14:32:15;;;;;;;;;;;21.80;35.80;;;;;;5133559;27;19908;-53
2021/12/07 14:34:42;;;;;;;;;;;21.80;35.70;;;;;;5133608;28;19908;-51
2021/12/07 14:37:08;;;;;;;;;;;21.80;35.70;;;;;;5135282;27;20361;-55
2021/12/07 14:39:35;;;;;;;;;;;21.80;35.80;;;;;;5137507;27;19953;-53
2021/12/07 14:42:02;;;;;;;;;;;21.80;35.70;;;;;;5137424;27;19994;-54
2021/12/07 14:44:30;;;;;;;;;;;21.70;35.70;;;;;;5137348;27;19914;-52
2021/12/07 14:46:57;;;;;;;;;;;21.80;35.70;;;;;;5137394;27;19908;-56
2021/12/07 14:49:23;;;;;;;;;;;21.70;35.70;;;;;;5136765;27;20304;-57
2021/12/07 14:51:48;;;;;;;;;;;21.70;35.80;;;;;;5137282;27;19942;-55
2021/12/07 14:54:15;;;;;;;;;;;21.80;35.70;;;;;;5136821;27;19952;-57
2021/12/07 14:56:44;;;;;;;;;;;21.80;35.70;;;;;;5136895;27;19990;-53
2021/12/07 14:59:10;;;;;;;;;;;21.70;35.80;;;;;;5136662;27;20026;-53
2021/12/07 15:01:38;;;;;;;;;;;21.70;35.70;;;;;;5136364;27;19907;-56
2021/12/07 15:04:05;;;;;;;;;;;21.80;35.60;;;;;;5140411;27;20368;-58
2021/12/07 15:06:33;;;;;;;;;;;21.90;35.50;;;;;;5137619;27;19933;-59
2021/12/07 15:08:59;;;;;;;;;;;21.90;35.50;;;;;;5136283;27;20014;-55
2021/12/07 15:11:25;;;;;;;;;;;21.90;35.60;;;;;;5139556;27;19908;-58
2021/12/07 15:13:51;;;;;;;;;;;21.90;35.50;;;;;;5137990;27;19907;-57
2021/12/07 15:16:16;;;;;;;;;;;21.90;35.60;;;;;;5137982;27;19911;-56
2021/12/07 15:18:43;;;;;;;;;;;21.90;35.60;;;;;;5142234;27;19931;-54
2021/12/07 15:21:13;;;;;;;;;;;21.80;35.70;;;;;;5140188;27;19921;-58
2021/12/07 15:23:52;;;;;;;;;;;21.80;35.60;;;;;;5140200;27;20374;-57
2021/12/07 15:26:18;;;;;;;;;;;21.80;35.70;;;;;;5141029;27;19961;-55
2021/12/07 15:29:02;;;;;;;;;;;21.80;35.70;;;;;;5138646;27;19914;-56
2021/12/07 15:31:28;;;;;;;;;;;21.80;35.70;;;;;;5137830;27;19976;-51
2021/12/07 15:33:55;;;;;;;;;;;21.80;35.70;;;;;;5135925;27;19997;-56
2021/12/07 15:36:21;;;;;;;;;;;21.80;35.70;;;;;;5136503;27;19911;-55
2021/12/07 15:38:48;;;;;;;;;;;21.80;35.70;;;;;;5140864;27;19911;-55
2021/12/07 15:41:14;;;;;;;;;;;21.80;35.70;;;;;;5139781;27;19923;-53
2021/12/07 15:43:43;;;;;;;;;;;21.80;35.70;;;;;;5135754;27;19915;-59
2021/12/07 15:46:16;;;;;;;;;;;21.80;35.80;;;;;;5132977;27;20370;-56
2021/12/07 15:48:42;;;;;;;;;;;21.90;35.70;;;;;;5138777;27;19916;-58
2021/12/07 15:51:07;;;;;;;;;;;21.80;35.70;;;;;;5138202;27;19911;-56
2021/12/07 15:53:33;;;;;;;;;;;21.90;35.70;;;;;;5136827;27;19976;-55
2021/12/07 15:55:58;;;;;;;;;;;21.90;35.70;;;;;;5136514;27;20381;-57
2021/12/07 15:58:24;;;;;;;;;;;21.90;35.70;;;;;;5115527;27;19919;-57
2021/12/07 16:00:49;;;;;;;;;;;21.90;35.80;;;;;;5138265;27;19920;-69
2021/12/07 16:03:19;;;;;;;;;;;21.90;35.80;;;;;;5134573;27;20002;-53
2021/12/07 16:05:46;;;;;;;;;;;21.90;35.80;;;;;;5136242;27;19911;-55